Time;durP1;ratioP1;P1;durP2;ratioP2;P2;SDS_P1;SDS_P2;PMS_P1;PMS_P2;Temp;Humidity;BMP_temperature;BMP_pressure;BME280_temperature;BME280_humidity;BME280_pressure;Samples;Min_cycle;Max_cycle;Signal;HPM_P1;HPM_P2
2023/04/05 04:30:34;;;;;;;;;26.25;26.00;;;;;8.48;47.81;101840.84;5080189;27;46532;-77
2023/04/05 04:33:03;;;;;;;;;18.00;16.00;;;;;8.63;48.23;101875.28;5075515;28;45512;-79
2023/04/05 04:35:32;;;;;;;;;22.00;21.75;;;;;8.67;48.01;101874.31;5075933;27;45243;-77
2023/04/05 04:38:02;;;;;;;;;29.00;24.00;;;;;8.63;47.78;101867.25;5075452;27;45453;-78
2023/04/05 04:40:31;;;;;;;;;19.50;18.25;;;;;8.48;47.66;101851.53;5075815;27;45266;-76
2023/04/05 04:42:57;;;;;;;;;21.25;19.25;;;;;8.48;47.53;101871.13;5075606;28;45399;-77
2023/04/05 04:45:23;;;;;;;;;22.25;19.50;;;;;8.40;47.35;101864.16;5077910;27;45384;-77
2023/04/05 04:47:51;;;;;;;;;21.50;21.50;;;;;8.39;47.51;101868.63;5096377;27;45389;-77
2023/04/05 04:50:18;;;;;;;;;24.50;24.50;;;;;8.40;48.00;101878.41;5083517;27;46124;-78
2023/04/05 04:52:44;;;;;;;;;25.25;22.50;;;;;8.41;47.71;101874.81;5095994;27;45510;-78
2023/04/05 04:55:13;;;;;;;;;21.00;17.00;;;;;8.40;47.86;101867.72;5096254;27;45286;-77
2023/04/05 04:57:40;;;;;;;;;19.25;17.25;;;;;8.33;48.15;101840.25;5095968;27;45513;-77
2023/04/05 05:00:12;;;;;;;;;29.50;23.75;;;;;8.40;47.86;101838.31;5068658;28;46034;-77
2023/04/05 05:02:38;;;;;;;;;21.25;20.25;;;;;8.52;47.43;101864.78;5090043;27;45563;-78
2023/04/05 05:05:05;;;;;;;;;23.25;21.25;;;;;8.54;47.68;101865.66;5092953;27;45384;-78
2023/04/05 05:07:31;;;;;;;;;24.25;19.75;;;;;8.42;47.48;101838.28;5095024;27;45823;-78
2023/04/05 05:09:57;;;;;;;;;20.00;18.00;;;;;8.59;47.43;101865.56;5095440;27;45541;-77
2023/04/05 05:12:25;;;;;;;;;22.25;21.25;;;;;8.60;47.08;101867.31;5062926;27;45350;-78
2023/04/05 05:14:50;;;;;;;;;20.75;19.50;;;;;8.41;47.63;101848.09;5095904;27;45247;-74
2023/04/05 05:17:16;;;;;;;;;24.25;23.25;;;;;8.17;47.53;101816.44;5094956;27;45625;-80
2023/04/05 05:19:41;;;;;;;;;29.25;26.25;;;;;8.48;47.84;101865.78;5075641;28;45326;-77
2023/04/05 05:22:06;;;;;;;;;28.25;26.00;;;;;8.27;47.60;101837.63;5074754;27;45288;-78
2023/04/05 05:24:32;;;;;;;;;30.50;21.75;;;;;8.39;48.19;101855.25;5056599;28;45359;-79
2023/04/05 05:26:57;;;;;;;;;24.75;23.75;;;;;8.30;48.37;101847.38;5074638;28;45184;-78
2023/04/05 05:29:22;;;;;;;;;24.50;20.00;;;;;8.40;48.52;101859.69;5076876;27;52895;-80
2023/04/05 05:31:49;;;;;;;;;21.25;21.25;;;;;8.48;47.31;101871.13;5081203;27;50007;-78
2023/04/05 05:34:16;;;;;;;;;21.00;21.00;;;;;8.28;47.92;101826.03;5074621;28;45428;-79
2023/04/05 05:36:41;;;;;;;;;24.25;24.25;;;;;8.48;47.59;101867.56;5075051;28;45604;-81
2023/04/05 05:39:06;;;;;;;;;28.00;24.75;;;;;8.42;47.43;101857.00;5056708;28;47242;-79
2023/04/05 05:41:32;;;;;;;;;22.00;22.00;;;;;8.34;47.60;101849.97;5074687;28;45331;-81
2023/04/05 05:43:58;;;;;;;;;22.50;21.75;;;;;8.27;47.82;101866.13;5074701;28;45458;-79
2023/04/05 05:46:24;;;;;;;;;20.25;19.25;;;;;8.15;48.08;101859.25;5057277;27;45533;-82
2023/04/05 05:48:50;;;;;;;;;17.00;17.00;;;;;8.26;48.00;101875.94;5070066;27;47274;-77
2023/04/05 05:51:15;;;;;;;;;28.50;26.00;;;;;7.99;48.32;101823.03;5077933;27;45233;-78
2023/04/05 05:53:41;;;;;;;;;22.50;21.00;;;;;8.28;48.11;101863.44;5094581;27;45393;-75
2023/04/05 05:56:06;;;;;;;;;21.50;21.50;;;;;8.38;48.48;101872.19;5094950;27;45334;-75
2023/04/05 05:58:31;;;;;;;;;20.50;18.25;;;;;8.44;48.27;101871.19;5087774;27;45555;-75
2023/04/05 06:00:58;;;;;;;;;22.75;21.25;;;;;8.47;48.25;101865.78;5074606;28;45474;-72
2023/04/05 06:03:24;;;;;;;;;18.75;18.50;;;;;8.39;47.79;101849.03;5077359;27;45406;-73
2023/04/05 06:05:55;;;;;;;;;24.25;18.50;;;;;8.51;48.01;101859.47;5072313;28;46078;-72
2023/04/05 06:08:21;;;;;;;;;25.25;19.00;;;;;8.58;47.21;101869.16;5081010;27;46006;-74
2023/04/05 06:10:48;;;;;;;;;22.50;16.25;;;;;8.55;47.88;101871.88;5094476;27;45344;-74
2023/04/05 06:13:13;;;;;;;;;21.25;20.25;;;;;8.54;47.30;101875.44;5079658;27;45419;-73
2023/04/05 06:15:38;;;;;;;;;28.00;23.00;;;;;8.47;48.14;101864.00;5097652;27;45496;-72
2023/04/05 06:18:04;;;;;;;;;22.50;22.50;;;;;8.50;47.87;101876.44;5089988;27;45385;-72
2023/04/05 06:20:29;;;;;;;;;28.25;25.25;;;;;8.43;48.20;101872.97;5077437;28;45382;-73
2023/04/05 06:22:55;;;;;;;;;30.50;23.00;;;;;8.25;47.65;101850.13;5079793;28;45330;-84
2023/04/05 06:25:20;;;;;;;;;26.00;23.25;;;;;8.31;48.22;101854.53;5079033;27;45534;-82
2023/04/05 06:27:46;;;;;;;;;21.50;21.50;;;;;8.12;48.65;101839.69;5074685;27;47277;-83
2023/04/05 06:30:11;;;;;;;;;29.50;23.50;;;;;8.25;48.72;101851.94;5101957;27;45301;-82
2023/04/05 06:32:37;;;;;;;;;23.00;21.50;;;;;8.51;48.55;101883.50;5067629;27;45447;-81
2023/04/05 06:35:02;;;;;;;;;26.50;23.75;;;;;8.45;48.59;101873.84;5079721;27;47264;-82
2023/04/05 06:37:29;;;;;;;;;29.25;26.25;;;;;8.16;48.52;101825.41;5097979;27;46603;-82
2023/04/05 06:39:54;;;;;;;;;19.75;18.50;;;;;8.23;48.45;101838.59;5096619;27;45390;-82
2023/04/05 06:42:20;;;;;;;;;27.75;23.75;;;;;8.43;48.81;101866.75;5078431;28;45215;-81
2023/04/05 06:44:45;;;;;;;;;11.00;11.00;;;;;8.40;48.26;101850.78;5077256;28;45279;-80
2023/04/05 06:47:10;;;;;;;;;26.75;25.00;;;;;8.56;48.56;101868.28;5066997;27;47169;-82
2023/04/05 06:49:36;;;;;;;;;39.25;31.00;;;;;8.33;48.02;101839.34;5097836;27;45388;-81
2023/04/05 06:52:04;;;;;;;;;28.75;25.75;;;;;8.65;48.05;101897.50;5097282;27;45307;-81
2023/04/05 06:54:31;;;;;;;;;29.50;24.50;;;;;8.49;48.44;101856.84;5079540;27;46522;-82
2023/04/05 06:56:57;;;;;;;;;31.00;26.75;;;;;8.37;48.45;101826.78;5079342;27;47337;-82
2023/04/05 06:59:22;;;;;;;;;33.25;30.50;;;;;8.62;48.34;101862.81;5079228;27;45639;-81
2023/04/05 07:01:47;;;;;;;;;31.25;28.75;;;;;8.69;48.28;101876.03;5080056;27;45403;-81
2023/04/05 07:04:13;;;;;;;;;32.25;28.75;;;;;8.86;48.31;101883.69;5097322;27;45460;-82
2023/04/05 07:06:38;;;;;;;;;33.00;28.25;;;;;8.80;48.29;101858.88;5097546;27;45311;-82
2023/04/05 07:09:04;;;;;;;;;32.25;26.75;;;;;8.69;48.02;101851.09;5079272;27;45290;-82
2023/04/05 07:11:31;;;;;;;;;30.75;27.50;;;;;9.00;47.86;101881.63;5097497;27;45349;-81
2023/04/05 07:14:00;;;;;;;;;32.00;27.00;;;;;8.95;47.42;101870.13;5097515;27;45259;-80
2023/04/05 07:16:26;;;;;;;;;39.50;29.25;;;;;9.16;47.33;101900.91;5079136;27;47311;-80
2023/04/05 07:18:51;;;;;;;;;30.00;26.50;;;;;9.00;47.63;101880.75;5083297;27;45426;-82
2023/04/05 07:21:16;;;;;;;;;28.75;26.25;;;;;9.01;47.58;101879.84;5077276;27;45379;-83
2023/04/05 07:23:43;;;;;;;;;36.75;29.75;;;;;9.03;47.72;101886.03;5075830;27;45489;-82
2023/04/05 07:26:09;;;;;;;;;31.50;29.75;;;;;9.11;47.38;101892.97;5058754;28;47849;-81
2023/04/05 07:28:35;;;;;;;;;29.75;29.50;;;;;9.03;48.07;101878.00;5085985;27;45308;-82
2023/04/05 07:31:01;;;;;;;;;32.75;30.75;;;;;8.92;47.50;101851.50;5085812;27;45291;-82
2023/04/05 07:33:27;;;;;;;;;38.75;33.50;;;;;9.32;47.20;101909.47;5076923;28;45463;-82
2023/04/05 07:35:55;;;;;;;;;30.25;27.75;;;;;9.34;47.60;101899.63;5078689;27;47361;-81
2023/04/05 07:38:21;;;;;;;;;29.75;25.50;;;;;9.07;46.98;101851.16;5097396;27;45371;-82
2023/04/05 07:40:50;;;;;;;;;29.00;27.00;;;;;9.27;46.81;101872.09;5097819;27;45357;-83
2023/04/05 07:43:17;;;;;;;;;28.25;27.50;;;;;9.09;47.01;101830.63;5089086;27;46008;-83
2023/04/05 07:45:43;;;;;;;;;31.00;28.25;;;;;9.54;46.77;101897.34;5099484;27;47047;-80
2023/04/05 07:48:08;;;;;;;;;30.25;30.25;;;;;9.24;46.66;101840.09;5081703;27;45423;-80
2023/04/05 07:50:35;;;;;;;;;31.25;28.50;;;;;9.41;46.35;101856.63;5088254;27;45459;-81
2023/04/05 07:53:01;;;;;;;;;36.50;34.50;;;;;9.40;45.86;101862.00;5100756;27;45756;-81
2023/04/05 07:55:26;;;;;;;;;32.25;26.00;;;;;9.41;46.33;101859.31;5079240;27;47980;-82
2023/04/05 07:57:52;;;;;;;;;33.75;31.25;;;;;9.63;45.46;101881.09;5077460;27;46093;-81
2023/04/05 08:00:20;;;;;;;;;28.75;27.00;;;;;9.34;45.77;101827.38;5078916;27;45410;-83
2023/04/05 08:02:45;;;;;;;;;16.00;16.00;;;;;9.71;46.13;101880.91;5079226;27;46191;-82
2023/04/05 08:05:11;;;;;;;;;30.50;29.25;;;;;9.47;44.93;101834.19;5078380;27;47225;-81
2023/04/05 08:07:36;;;;;;;;;26.25;23.75;;;;;9.79;45.13;101882.47;5078595;27;46074;-82
2023/04/05 08:10:03;;;;;;;;;30.25;29.50;;;;;9.84;44.95;101883.25;5079191;27;45212;-83
2023/04/05 08:12:30;;;;;;;;;35.00;28.00;;;;;9.77;43.54;101862.03;5078675;27;45449;-81
2023/04/05 08:14:55;;;;;;;;;28.50;25.25;;;;;9.67;43.05;101850.66;5097131;27;45571;-82
2023/04/05 08:17:20;;;;;;;;;22.75;20.75;;;;;9.75;42.38;101859.38;5095856;27;45460;-80
2023/04/05 08:19:46;;;;;;;;;25.50;24.25;;;;;9.53;42.33;101822.47;5065600;27;45652;-82
2023/04/05 08:22:11;;;;;;;;;25.25;21.50;;;;;9.68;42.59;101854.22;5097760;27;45721;-83
2023/04/05 08:24:37;;;;;;;;;31.00;23.25;;;;;9.91;42.69;101878.63;5079789;27;46940;-82
2023/04/05 08:27:02;;;;;;;;;21.50;21.00;;;;;9.90;42.57;101873.28;5097311;27;45476;-81
2023/04/05 08:29:28;;;;;;;;;26.50;24.50;;;;;9.93;42.81;101866.06;5078880;27;45463;-80
2023/04/05 08:31:56;;;;;;;;;30.50;22.25;;;;;10.11;42.77;101886.16;5082465;27;45457;-82
2023/04/05 08:34:22;;;;;;;;;34.50;24.25;;;;;10.00;42.30;101843.56;5075994;28;46527;-82
2023/04/05 08:36:47;;;;;;;;;29.00;26.00;;;;;10.39;41.31;101915.81;5074432;27;45370;-81
2023/04/05 08:39:14;;;;;;;;;27.00;24.75;;;;;10.30;42.13;101889.25;5065500;27;45335;-82
2023/04/05 08:41:44;;;;;;;;;19.25;17.75;;;;;10.25;41.67;101862.59;5096168;27;45522;-82
2023/04/05 08:44:10;;;;;;;;;24.50;22.50;;;;;10.56;41.79;101909.06;5096161;27;46169;-81
2023/04/05 08:46:36;;;;;;;;;26.50;22.00;;;;;10.51;41.57;101888.69;5096557;27;45324;-82
2023/04/05 08:49:06;;;;;;;;;21.50;20.50;;;;;10.53;41.39;101881.50;5078323;27;45334;-80
2023/04/05 08:51:32;;;;;;;;;30.50;23.00;;;;;10.59;41.53;101881.31;5095662;27;45400;-82
2023/04/05 08:54:00;;;;;;;;;24.50;22.50;;;;;10.76;41.88;101892.44;5077488;27;48055;-82
2023/04/05 08:56:33;;;;;;;;;16.50;12.50;;;;;10.72;41.17;101885.41;5077898;27;45867;-81
2023/04/05 08:59:04;;;;;;;;;23.00;21.50;;;;;10.30;39.52;101816.88;5078235;27;45292;-81
2023/04/05 09:01:31;;;;;;;;;18.75;15.50;;;;;10.37;39.46;101846.19;5095810;27;45528;-82
2023/04/05 09:04:04;;;;;;;;;22.50;19.50;;;;;10.64;39.67;101890.09;5077440;27;47392;-82
2023/04/05 09:06:30;;;;;;;;;22.50;21.00;;;;;10.61;39.90;101874.13;5077224;27;45434;-83
2023/04/05 09:09:05;;;;;;;;;23.00;21.50;;;;;10.60;39.72;101865.19;5095698;27;45325;-82
2023/04/05 09:11:32;;;;;;;;;23.50;21.25;;;;;10.81;39.41;101886.94;5077002;27;46829;-81
2023/04/05 09:13:57;;;;;;;;;23.50;20.25;;;;;10.79;39.24;101884.31;5077117;27;47233;-82
2023/04/05 09:16:25;;;;;;;;;17.50;17.00;;;;;10.47;39.33;101814.59;5062965;27;45385;-81
2023/04/05 09:18:51;;;;;;;;;25.00;21.75;;;;;10.75;39.26;101854.94;5073822;28;45416;-82
2023/04/05 09:21:16;;;;;;;;;25.25;22.00;;;;;10.93;38.94;101889.28;5063508;27;46511;-81
2023/04/05 09:23:51;;;;;;;;;18.25;17.00;;;;;10.97;38.90;101881.06;5095372;27;45512;-80
2023/04/05 09:26:20;;;;;;;;;24.25;21.25;;;;;10.89;37.96;101863.44;5060413;27;45277;-81
2023/04/05 09:28:45;;;;;;;;;23.50;19.50;;;;;10.89;37.84;101877.75;5075502;27;45521;-81
2023/04/05 09:31:30;;;;;;;;;30.25;25.25;;;;;10.69;38.00;101853.31;5086642;27;45754;-82
2023/04/05 09:34:02;;;;;;;;;23.25;19.75;;;;;10.96;38.86;101891.88;5074876;27;45465;-82
2023/04/05 09:36:27;;;;;;;;;23.50;18.50;;;;;10.85;37.73;101854.63;5095402;27;45492;-82
2023/04/05 09:39:02;;;;;;;;;13.00;12.25;;;;;10.90;37.06;101858.03;5095328;27;45682;-81
2023/04/05 09:41:28;;;;;;;;;20.75;20.25;;;;;11.07;36.72;101878.13;5095623;27;45334;-82
2023/04/05 09:43:54;;;;;;;;;21.50;19.00;;;;;11.14;37.23;101885.97;5095031;27;46189;-81
2023/04/05 09:46:32;;;;;;;;;30.25;22.25;;;;;11.05;37.33;101858.53;5076103;27;45443;-80
2023/04/05 09:49:00;;;;;;;;;23.25;20.00;;;;;11.31;37.50;101882.78;5076820;27;45414;-82
2023/04/05 09:51:34;;;;;;;;;13.00;11.50;;;;;11.34;36.99;101872.81;5095164;27;45707;-82
2023/04/05 09:54:06;;;;;;;;;22.25;21.00;;;;;11.38;37.11;101857.50;5073543;28;46984;-84
2023/04/05 09:56:37;;;;;;;;;27.75;21.50;;;;;11.45;37.35;101858.16;5091268;27;45338;-82
2023/04/05 09:59:09;;;;;;;;;22.25;20.50;;;;;11.66;36.49;101877.16;5095661;27;45270;-82
2023/04/05 10:01:35;;;;;;;;;17.00;17.00;;;;;11.49;36.08;101835.66;5095549;27;45320;-81
2023/04/05 10:04:01;;;;;;;;;18.00;18.00;;;;;11.51;35.61;101817.69;5094718;27;45428;-80
2023/04/05 10:06:39;;;;;;;;;20.00;20.00;;;;;11.89;35.40;101871.06;5095040;27;45304;-83
2023/04/05 10:09:06;;;;;;;;;20.25;19.00;;;;;11.95;35.43;101870.84;5076533;27;45318;-81
2023/04/05 10:11:33;;;;;;;;;20.00;18.00;;;;;11.98;34.08;101867.19;5076480;27;46747;-83
2023/04/05 10:14:04;;;;;;;;;23.75;19.25;;;;;11.69;34.60;101817.09;5076744;27;46948;-82
2023/04/05 10:16:35;;;;;;;;;17.50;15.25;;;;;12.06;34.28;101868.69;5095044;27;45475;-83
2023/04/05 10:19:04;;;;;;;;;21.00;18.00;;;;;11.75;34.58;101814.22;5075972;27;45293;-81
2023/04/05 10:21:34;;;;;;;;;20.50;18.75;;;;;11.91;34.78;101820.81;5096140;27;45520;-81
2023/04/05 10:24:09;;;;;;;;;20.50;19.00;;;;;12.22;33.97;101870.84;5097257;27;45465;-81
2023/04/05 10:26:48;;;;;;;;;17.00;12.50;;;;;12.24;33.68;101867.19;5095803;27;45246;-86
2023/04/05 10:29:24;;;;;;;;;22.50;19.75;;;;;12.00;33.49;101831.25;5075394;27;45627;-84
2023/04/05 10:32:00;;;;;;;;;28.00;25.00;;;;;11.91;33.40;101799.31;5074645;27;46243;-82
2023/04/05 10:34:42;;;;;;;;;18.25;18.25;;;;;12.32;33.69;101851.66;5075127;27;47081;-81
2023/04/05 10:37:36;;;;;;;;;21.25;20.75;;;;;12.00;33.96;101799.00;5075119;27;45728;-81
2023/04/05 10:40:03;;;;;;;;;22.50;20.50;;;;;12.02;33.49;101774.78;5040797;27;45268;-84
2023/04/05 10:42:39;;;;;;;;;20.75;19.00;;;;;12.20;33.25;101798.31;5095658;27;45557;-87
2023/04/05 10:45:10;;;;;;;;;24.75;23.75;;;;;12.17;32.85;101787.66;5075939;27;46908;-83
2023/04/05 10:47:46;;;;;;;;;23.50;22.00;;;;;12.40;32.64;101824.50;5088016;27;45241;-82
2023/04/05 10:50:20;;;;;;;;;18.50;17.25;;;;;12.24;32.40;101789.22;5072712;27;45517;-83
2023/04/05 10:52:47;;;;;;;;;20.50;18.25;;;;;12.35;32.33;101792.38;5074458;27;47010;-83
2023/04/05 10:55:15;;;;;;;;;24.00;22.50;;;;;12.21;31.33;101773.19;5096696;27;46459;-82
2023/04/05 10:57:42;;;;;;;;;26.25;22.25;;;;;12.32;31.96;101775.50;5061210;27;45553;-81
2023/04/05 11:00:10;;;;;;;;;24.50;18.00;;;;;12.27;32.56;101743.38;5099815;27;45428;-82
2023/04/05 11:02:36;;;;;;;;;24.75;21.00;;;;;12.67;32.66;101780.44;5082197;27;46948;-81
2023/04/05 11:05:03;;;;;;;;;20.25;17.50;;;;;12.89;32.57;101799.31;5082442;27;46724;-80
2023/04/05 11:07:50;;;;;;;;;21.00;18.75;;;;;13.18;32.69;101819.75;5082005;27;45523;-81
2023/04/05 11:10:17;;;;;;;;;19.75;18.75;;;;;12.92;31.86;101750.75;5069920;27;45340;-83
2023/04/05 11:12:52;;;;;;;;;24.00;19.25;;;;;13.44;30.40;101816.03;5079983;27;46981;-82
2023/04/05 11:15:31;;;;;;;;;23.25;20.00;;;;;13.25;30.67;101764.72;5079323;27;48759;-82
2023/04/05 11:18:16;;;;;;;;;24.50;20.00;;;;;13.26;30.10;101753.00;5073792;28;45775;-82
2023/04/05 11:20:42;;;;;;;;;26.00;21.50;;;;;13.66;30.54;101806.09;5094092;27;45362;-83
2023/04/05 11:23:15;;;;;;;;;21.50;20.75;;;;;13.87;30.21;101810.56;5080651;27;47344;-83
2023/04/05 11:26:05;;;;;;;;;21.50;20.50;;;;;13.43;29.91;101701.13;5080655;27;47590;-83
2023/04/05 11:28:39;;;;;;;;;17.50;15.75;;;;;14.13;30.12;101795.97;5080866;27;45457;-82
2023/04/05 11:31:21;;;;;;;;;21.25;15.50;;;;;14.23;29.79;101770.34;5091807;27;45480;-82
2023/04/05 11:33:46;;;;;;;;;21.25;20.00;;;;;14.58;29.03;101787.69;5077981;27;45420;-80
2023/04/05 11:36:14;;;;;;;;;20.25;18.25;;;;;14.47;28.85;101729.75;5077457;28;45618;-82
2023/04/05 11:38:42;;;;;;;;;18.00;16.00;;;;;14.82;28.28;101746.97;5074834;27;45430;-82
2023/04/05 11:41:16;;;;;;;;;22.00;19.00;;;;;14.92;26.48;101732.09;5097662;27;45333;-82
2023/04/05 11:43:43;;;;;;;;;19.00;18.50;;;;;15.08;27.31;101743.91;5097196;27;45620;-83
2023/04/05 11:46:08;;;;;;;;;21.00;16.75;;;;;15.22;26.58;101729.75;5078710;27;47302;-81
2023/04/05 11:48:35;;;;;;;;;19.00;16.00;;;;;15.54;27.19;101737.13;5074788;28;45342;-83
2023/04/05 11:51:08;;;;;;;;;19.50;19.50;;;;;15.99;25.73;101768.19;5070915;27;45415;-84
2023/04/05 11:53:33;;;;;;;;;17.25;14.75;;;;;15.82;26.57;101721.22;5082931;27;46195;-82
2023/04/05 11:56:11;;;;;;;;;23.25;15.75;;;;;16.01;26.61;101713.03;5082467;27;47125;-83
2023/04/05 11:58:37;;;;;;;;;17.00;15.00;;;;;16.44;25.78;101746.78;5079051;27;45347;-81
2023/04/05 12:01:05;;;;;;;;;17.50;15.00;;;;;16.56;25.62;101729.00;5078962;27;45339;-80
2023/04/05 12:03:31;;;;;;;;;17.00;14.75;;;;;17.03;25.66;101764.28;5096487;27;45354;-83
2023/04/05 12:06:01;;;;;;;;;20.25;15.00;;;;;16.96;24.56;101712.28;5096585;27;47211;-81
2023/04/05 12:08:49;;;;;;;;;18.75;15.75;;;;;17.35;24.13;101749.75;5079220;27;45282;-82
2023/04/05 12:11:25;;;;;;;;;18.25;14.75;;;;;17.29;24.31;101714.88;5078207;27;45418;-80
2023/04/05 12:14:01;;;;;;;;;17.25;12.50;;;;;17.70;24.08;101752.25;5076002;28;45632;-80
2023/04/05 12:16:27;;;;;;;;;15.25;15.25;;;;;17.55;25.00;101688.06;5065006;27;48084;-82
2023/04/05 12:18:54;;;;;;;;;14.50;13.00;;;;;18.07;24.11;101726.50;5075314;27;45643;-80
2023/04/05 12:21:20;;;;;;;;;15.25;14.75;;;;;18.21;24.82;101707.50;5078284;27;45178;-76
2023/04/05 12:23:46;;;;;;;;;19.00;17.00;;;;;18.44;24.58;101700.66;5074799;27;46329;-78
2023/04/05 12:26:12;;;;;;;;;18.25;16.75;;;;;18.81;23.77;101710.03;5096167;27;45315;-77
2023/04/05 12:28:57;;;;;;;;;16.75;15.00;;;;;19.15;23.62;101731.31;5096378;27;45406;-78
2023/04/05 12:31:36;;;;;;;;;17.00;16.25;;;;;19.55;23.13;101728.72;5086287;27;45372;-79
2023/04/05 12:34:01;;;;;;;;;15.50;12.50;;;;;19.74;21.83;101729.16;5075567;28;45800;-77
2023/04/05 12:36:27;;;;;;;;;16.50;14.50;;;;;19.82;22.38;101734.97;5075887;28;45437;-79
2023/04/05 12:38:55;;;;;;;;;17.50;15.75;;;;;19.77;21.61;101680.00;5075676;28;45361;-78
2023/04/05 12:41:31;;;;;;;;;20.00;17.75;;;;;20.44;22.42;101715.22;5057554;28;45205;-78
2023/04/05 12:44:00;;;;;;;;;18.50;16.00;;;;;20.75;20.64;101703.88;5075397;27;45576;-78
2023/04/05 12:46:39;;;;;;;;;17.75;13.50;;;;;21.72;18.50;101710.13;5075549;28;46116;-80
2023/04/05 12:49:04;;;;;;;;;15.25;14.50;;;;;22.44;18.18;101655.31;5065221;27;45372;-79
2023/04/05 12:51:31;;;;;;;;;15.00;13.75;;;;;23.32;18.27;101650.66;5077313;27;45351;-80
2023/04/05 12:53:56;;;;;;;;;14.75;13.50;;;;;24.26;17.23;101674.47;5095865;27;45571;-80
2023/04/05 12:56:22;;;;;;;;;19.00;15.25;;;;;24.96;17.84;101663.50;5077141;27;48201;-75
2023/04/05 12:58:49;;;;;;;;;18.25;14.00;;;;;25.80;15.76;101683.97;5096060;27;45561;-75
2023/04/05 13:01:15;;;;;;;;;15.00;14.75;;;;;26.15;15.27;101657.72;5096007;27;45369;-78
2023/04/05 13:03:43;;;;;;;;;17.25;14.75;;;;;27.08;16.50;101665.88;5077170;27;46683;-78
2023/04/05 13:06:08;;;;;;;;;16.00;13.75;;;;;27.93;14.72;101673.63;5095415;27;47207;-80
2023/04/05 13:08:34;;;;;;;;;19.75;15.25;;;;;28.64;14.92;101672.53;5095705;27;45342;-78
2023/04/05 13:10:59;;;;;;;;;10.25;10.25;;;;;29.16;13.37;101663.09;5095855;27;45543;-78
2023/04/05 13:13:25;;;;;;;;;15.00;12.00;;;;;29.53;13.65;101657.13;5095767;27;45635;-77
2023/04/05 13:15:50;;;;;;;;;15.50;15.00;;;;;30.15;12.99;101660.25;5095443;27;45457;-76
2023/04/05 13:18:15;;;;;;;;;13.50;12.25;;;;;30.60;13.27;101645.81;5087026;27;45211;-80
2023/04/05 13:20:41;;;;;;;;;10.75;10.75;;;;;31.18;12.82;101642.59;5074740;28;45212;-78
2023/04/05 13:23:09;;;;;;;;;14.50;13.00;;;;;31.74;12.04;101636.81;5075548;27;45554;-77
2023/04/05 13:25:36;;;;;;;;;10.75;10.75;;;;;32.13;11.38;101637.47;5060528;28;47243;-77
2023/04/05 13:28:01;;;;;;;;;6.75;5.75;;;;;32.35;12.24;101630.13;5076131;28;45384;-77
2023/04/05 13:30:27;;;;;;;;;12.50;10.75;;;;;32.75;11.65;101639.06;5069942;27;45351;-79
2023/04/05 13:32:52;;;;;;;;;12.25;11.50;;;;;33.12;10.93;101636.09;5074942;28;45527;-79
2023/04/05 13:35:17;;;;;;;;;13.75;11.75;;;;;33.34;11.08;101637.03;5075117;28;45486;-79
2023/04/05 13:37:44;;;;;;;;;16.00;14.25;;;;;33.34;11.24;101621.22;5075183;28;45398;-79
2023/04/05 13:40:10;;;;;;;;;10.50;10.00;;;;;33.61;11.48;101625.06;5052694;27;45407;-76
2023/04/05 13:42:35;;;;;;;;;18.25;15.25;;;;;33.83;10.83;101612.06;5093620;27;45485;-79
2023/04/05 13:45:01;;;;;;;;;16.50;13.75;;;;;34.00;11.53;101618.16;5090900;27;45483;-79
2023/04/05 13:47:26;;;;;;;;;19.75;15.50;;;;;34.06;10.89;101601.50;5093968;27;45496;-77
2023/04/05 13:49:52;;;;;;;;;15.00;10.75;;;;;34.23;11.33;101624.31;5092633;27;45513;-78
2023/04/05 13:52:17;;;;;;;;;16.50;13.75;;;;;34.11;10.96;101607.31;5092176;27;45408;-78
2023/04/05 13:54:46;;;;;;;;;17.00;13.50;;;;;33.79;10.82;101602.38;5092892;27;45476;-78
2023/04/05 13:57:13;;;;;;;;;20.00;16.25;;;;;33.90;11.58;101598.19;5074996;28;45341;-78
2023/04/05 13:59:38;;;;;;;;;13.75;13.25;;;;;33.70;11.20;101582.16;5071730;27;45319;-76
2023/04/05 14:02:03;;;;;;;;;15.75;15.00;;;;;33.47;11.04;101578.75;5095285;27;45556;-80
2023/04/05 14:04:29;;;;;;;;;22.00;18.00;;;;;33.29;11.56;101600.59;5094576;27;45376;-80
2023/04/05 14:06:54;;;;;;;;;15.75;14.00;;;;;33.01;12.11;101550.47;5076580;27;46404;-79
2023/04/05 14:09:19;;;;;;;;;20.00;18.00;;;;;33.21;11.60;101564.56;5076659;27;45420;-79
2023/04/05 14:11:45;;;;;;;;;17.00;16.75;;;;;33.44;11.45;101580.00;5095082;27;45398;-80
2023/04/05 14:14:10;;;;;;;;;16.25;14.50;;;;;33.56;11.46;101569.22;5094615;27;46187;-77
2023/04/05 14:16:36;;;;;;;;;21.50;16.00;;;;;33.58;11.92;101555.97;5095057;27;45455;-77
2023/04/05 14:19:03;;;;;;;;;14.75;11.25;;;;;33.92;11.29;101557.97;5079525;27;45437;-80
2023/04/05 14:21:30;;;;;;;;;18.25;15.75;;;;;33.70;10.71;101570.16;5073982;28;45588;-76
2023/04/05 14:23:56;;;;;;;;;17.75;13.75;;;;;33.47;11.27;101536.19;5071348;27;48542;-83
2023/04/05 14:26:26;;;;;;;;;14.25;12.25;;;;;33.62;10.61;101564.75;5076526;27;45492;-79
2023/04/05 14:28:52;;;;;;;;;17.00;15.75;;;;;33.35;11.22;101514.47;5094612;27;45491;-81
2023/04/05 14:31:18;;;;;;;;;17.75;12.50;;;;;33.56;11.52;101537.75;5084982;27;45330;-78
2023/04/05 14:33:44;;;;;;;;;18.50;15.75;;;;;33.42;11.22;101532.09;5077235;28;45414;-78
2023/04/05 14:36:09;;;;;;;;;16.50;16.00;;;;;33.05;11.27;101524.03;5079701;27;45346;-82
2023/04/05 14:38:34;;;;;;;;;15.25;14.25;;;;;33.22;11.75;101535.75;5098245;27;45326;-78
2023/04/05 14:41:00;;;;;;;;;20.25;14.25;;;;;33.17;11.48;101550.22;5097734;27;45539;-78
2023/04/05 14:43:25;;;;;;;;;18.00;13.75;;;;;32.91;11.86;101519.41;5077534;27;47259;-80
2023/04/05 14:45:51;;;;;;;;;16.25;15.75;;;;;32.47;12.11;101483.41;5086294;27;45484;-78
2023/04/05 14:48:16;;;;;;;;;13.00;12.00;;;;;32.78;12.35;101528.44;5097945;27;45811;-76
2023/04/05 14:50:42;;;;;;;;;16.50;11.25;;;;;32.95;12.41;101534.59;5098175;27;45348;-76
2023/04/05 14:53:07;;;;;;;;;15.00;15.00;;;;;32.61;12.01;101482.47;5097422;27;45551;-78
2023/04/05 14:55:32;;;;;;;;;15.50;15.00;;;;;32.78;12.31;101522.00;5097660;27;45368;-76
2023/04/05 14:57:59;;;;;;;;;14.25;13.75;;;;;32.75;12.34;101514.09;5097924;27;45377;-79
2023/04/05 15:00:25;;;;;;;;;15.25;15.00;;;;;32.51;11.74;101482.81;5079401;27;46022;-80
2023/04/05 15:02:50;;;;;;;;;21.00;15.00;;;;;32.45;12.56;101528.00;5097285;27;45848;-76
2023/04/05 15:05:17;;;;;;;;;16.75;14.00;;;;;32.33;12.59;101518.44;5097291;27;45361;-77
2023/04/05 15:07:42;;;;;;;;;19.25;16.00;;;;;31.88;12.59;101506.50;5097532;27;45320;-74
2023/04/05 15:10:08;;;;;;;;;15.75;12.75;;;;;31.45;12.96;101494.28;5097551;27;45325;-74
2023/04/05 15:12:33;;;;;;;;;17.00;14.75;;;;;31.18;12.20;101497.66;5097277;27;45278;-77
2023/04/05 15:14:59;;;;;;;;;20.25;15.25;;;;;31.00;13.08;101497.94;5097549;27;45412;-77
2023/04/05 15:17:24;;;;;;;;;17.50;14.75;;;;;30.87;12.32;101489.41;5077380;27;45253;-79
2023/04/05 15:19:50;;;;;;;;;15.00;14.25;;;;;30.89;12.66;101480.88;5067501;27;46681;-78
2023/04/05 15:22:16;;;;;;;;;13.75;12.75;;;;;30.81;13.15;101481.81;5097672;27;45420;-77
2023/04/05 15:24:42;;;;;;;;;14.00;13.00;;;;;30.81;12.53;101468.84;5097683;27;45340;-75
2023/04/05 15:27:10;;;;;;;;;14.25;13.25;;;;;30.56;12.25;101460.88;5098069;27;46031;-82
2023/04/05 15:29:36;;;;;;;;;13.50;12.25;;;;;30.47;12.84;101477.50;5080170;27;46498;-76
2023/04/05 15:32:02;;;;;;;;;20.00;15.00;;;;;30.17;13.20;101478.38;5062630;28;47009;-78
2023/04/05 15:34:29;;;;;;;;;16.00;13.00;;;;;29.83;13.18;101475.03;5076036;28;45331;-78
2023/04/05 15:36:54;;;;;;;;;13.50;11.00;;;;;29.58;13.43;101477.00;5076638;28;45464;-78
2023/04/05 15:39:20;;;;;;;;;17.00;13.25;;;;;29.40;13.56;101490.16;5076569;28;45544;-77
2023/04/05 15:41:46;;;;;;;;;16.50;13.00;;;;;29.18;13.42;101475.97;5076580;28;45533;-77
2023/04/05 15:44:12;;;;;;;;;13.00;13.00;;;;;29.24;13.93;101477.19;5075943;28;45286;-76